AFL149 UWGG-UWLL
Flight info
| Callsign | AFL149 |
|---|---|
| Flight time | 0h 59m |
| Altitude | 27000 |
| Route | UD DCT ARPUD |
| Aircraft | A20N/M-SDE2E3FGHIRWXY/LB1 |
Departure
| Time | 2026-04-30 18:58 |
|---|---|
| Airport | Nizhny Novgorod / Strigino International Airport (UWGG) |
Arrival
| Time | 2026-04-30 19:57 |
|---|---|
| Airport | Ulyanovsk Baratayevka Airport (UWLL) |
| Time | Latitude | Longitude | Altitude | Speed | Heading |
|---|---|---|---|---|---|
| 2026-04-30 18:25 | 56.22023 | 43.78849 | 269 ft | 0 kts | 101° |
| 2026-04-30 18:46 | 56.22025 | 43.78831 | 269 ft | 0 kts | 101° |
| 2026-04-30 18:46 | 56.22027 | 43.78812 | 269 ft | 3 kts | 101° |
| 2026-04-30 18:46 | 56.22028 | 43.78790 | 269 ft | 3 kts | 101° |
| 2026-04-30 18:46 | 56.22037 | 43.78767 | 269 ft | 3 kts | 153° |
| 2026-04-30 18:47 | 56.22054 | 43.78751 | 269 ft | 3 kts | 153° |
| 2026-04-30 18:47 | 56.22066 | 43.78745 | 269 ft | 0 kts | 180° |
| 2026-04-30 18:51 | 56.22065 | 43.78745 | 269 ft | 1 kts | 180° |
| 2026-04-30 18:51 | 56.22054 | 43.78745 | 269 ft | 2 kts | 182° |
| 2026-04-30 18:52 | 56.22043 | 43.78743 | 269 ft | 3 kts | 187° |
| 2026-04-30 18:52 | 56.22020 | 43.78736 | 269 ft | 4 kts | 190° |
| 2026-04-30 18:52 | 56.21988 | 43.78725 | 269 ft | 6 kts | 191° |
| 2026-04-30 18:52 | 56.21945 | 43.78708 | 269 ft | 6 kts | 200° |
| 2026-04-30 18:53 | 56.21922 | 43.78664 | 269 ft | 4 kts | 240° |
| 2026-04-30 18:53 | 56.21903 | 43.78617 | 269 ft | 4 kts | 219° |
| 2026-04-30 18:53 | 56.21876 | 43.78596 | 269 ft | 4 kts | 195° |
| 2026-04-30 18:53 | 56.21843 | 43.78584 | 269 ft | 6 kts | 191° |
| 2026-04-30 18:54 | 56.21799 | 43.78569 | 269 ft | 7 kts | 191° |
| 2026-04-30 18:54 | 56.21744 | 43.78549 | 269 ft | 9 kts | 192° |
| 2026-04-30 18:54 | 56.21678 | 43.78524 | 269 ft | 11 kts | 192° |
| 2026-04-30 18:54 | 56.21599 | 43.78493 | 269 ft | 13 kts | 192° |
| 2026-04-30 18:55 | 56.21509 | 43.78459 | 269 ft | 13 kts | 199° |
| 2026-04-30 18:55 | 56.21487 | 43.78304 | 270 ft | 6 kts | 282° |
| 2026-04-30 18:55 | 56.21492 | 43.78262 | 270 ft | 0 kts | 282° |
| 2026-04-30 18:56 | 56.21492 | 43.78261 | 270 ft | 0 kts | 282° |
| 2026-04-30 18:56 | 56.21494 | 43.78248 | 270 ft | 3 kts | 282° |
| 2026-04-30 18:56 | 56.21504 | 43.78165 | 270 ft | 10 kts | 282° |
| 2026-04-30 18:57 | 56.21556 | 43.78059 | 271 ft | 3 kts | 9° |
| 2026-04-30 18:57 | 56.21855 | 43.78166 | 270 ft | 94 kts | 11° |
| 2026-04-30 18:57 | 56.22833 | 43.78511 | 309 ft | 183 kts | 9° |
| 2026-04-30 18:58 | 56.25654 | 43.79510 | 1968 ft | 230 kts | 11° |
| 2026-04-30 18:58 | 56.27268 | 43.80121 | 2965 ft | 242 kts | 12° |
| 2026-04-30 18:58 | 56.28945 | 43.80754 | 4043 ft | 250 kts | 12° |
| 2026-04-30 18:59 | 56.32414 | 43.82043 | 6389 ft | 260 kts | 11° |
| 2026-04-30 19:00 | 56.37876 | 43.84241 | 9926 ft | 278 kts | 24° |
| 2026-04-30 19:00 | 56.39381 | 43.86508 | 10822 ft | 296 kts | 54° |
| 2026-04-30 19:00 | 56.39832 | 43.94156 | 12404 ft | 331 kts | 105° |
| 2026-04-30 19:01 | 56.38842 | 44.02039 | 15500 ft | 312 kts | 99° |
| 2026-04-30 19:01 | 56.38565 | 44.05897 | 16735 ft | 312 kts | 96° |
| 2026-04-30 19:02 | 56.38258 | 44.13796 | 18754 ft | 322 kts | 93° |
| 2026-04-30 19:02 | 56.37976 | 44.21963 | 20544 ft | 330 kts | 106° |
| 2026-04-30 19:03 | 56.35019 | 44.27988 | 22262 ft | 334 kts | 159° |
| 2026-04-30 19:03 | 56.30412 | 44.29636 | 23873 ft | 342 kts | 168° |
| 2026-04-30 19:04 | 56.25832 | 44.32143 | 25149 ft | 351 kts | 160° |
| 2026-04-30 19:04 | 56.21165 | 44.35579 | 25842 ft | 377 kts | 157° |
| 2026-04-30 19:05 | 56.16187 | 44.39561 | 26288 ft | 405 kts | 156° |
| 2026-04-30 19:05 | 56.10958 | 44.43817 | 26889 ft | 415 kts | 157° |
| 2026-04-30 19:06 | 56.05666 | 44.48061 | 27540 ft | 419 kts | 157° |
| 2026-04-30 19:06 | 56.02946 | 44.50256 | 27925 ft | 422 kts | 157° |
| 2026-04-30 19:06 | 55.97628 | 44.54564 | 28704 ft | 427 kts | 158° |
| 2026-04-30 19:07 | 55.92230 | 44.58939 | 29513 ft | 431 kts | 158° |
| 2026-04-30 19:07 | 55.89456 | 44.61183 | 29922 ft | 433 kts | 158° |
| 2026-04-30 19:08 | 55.83912 | 44.65659 | 30641 ft | 442 kts | 158° |
| 2026-04-30 19:08 | 55.78267 | 44.70201 | 31123 ft | 456 kts | 158° |
| 2026-04-30 19:09 | 55.69469 | 44.77257 | 31127 ft | 462 kts | 158° |
| 2026-04-30 19:09 | 55.63591 | 44.81956 | 31132 ft | 460 kts | 158° |
| 2026-04-30 19:10 | 55.52482 | 44.92846 | 31136 ft | 465 kts | 140° |
| 2026-04-30 19:11 | 55.45667 | 45.05038 | 31124 ft | 464 kts | 138° |
| 2026-04-30 19:12 | 55.41059 | 45.12984 | 31127 ft | 462 kts | 140° |
| 2026-04-30 19:12 | 55.36357 | 45.20694 | 31129 ft | 462 kts | 140° |
| 2026-04-30 19:13 | 55.26891 | 45.35899 | 31123 ft | 463 kts | 140° |
| 2026-04-30 19:14 | 55.22133 | 45.43521 | 31125 ft | 461 kts | 141° |
| 2026-04-30 19:14 | 55.17404 | 45.51081 | 31124 ft | 460 kts | 141° |
| 2026-04-30 19:15 | 55.12670 | 45.58625 | 31122 ft | 460 kts | 141° |
| 2026-04-30 19:15 | 55.05562 | 45.69900 | 31105 ft | 460 kts | 141° |
| 2026-04-30 19:16 | 55.00839 | 45.77364 | 31116 ft | 455 kts | 141° |
| 2026-04-30 19:17 | 54.93801 | 45.88435 | 31116 ft | 454 kts | 141° |
| 2026-04-30 19:17 | 54.89212 | 45.95617 | 31117 ft | 436 kts | 143° |
| 2026-04-30 19:17 | 54.86945 | 45.99086 | 31114 ft | 432 kts | 143° |
| 2026-04-30 19:18 | 54.83262 | 46.04706 | 31109 ft | 418 kts | 143° |
| 2026-04-30 19:18 | 54.80366 | 46.09157 | 31112 ft | 413 kts | 143° |
| 2026-04-30 19:19 | 54.76023 | 46.15557 | 30793 ft | 401 kts | 146° |
| 2026-04-30 19:19 | 54.73922 | 46.18516 | 30595 ft | 388 kts | 146° |
| 2026-04-30 19:19 | 54.69850 | 46.24192 | 30244 ft | 363 kts | 146° |
| 2026-04-30 19:20 | 54.67914 | 46.26876 | 30065 ft | 352 kts | 146° |
| 2026-04-30 19:20 | 54.66037 | 46.29473 | 29871 ft | 341 kts | 147° |
| 2026-04-30 19:20 | 54.62444 | 46.34431 | 29480 ft | 320 kts | 147° |
| 2026-04-30 19:21 | 54.60735 | 46.36783 | 29292 ft | 310 kts | 148° |
| 2026-04-30 19:21 | 54.57465 | 46.41277 | 28982 ft | 291 kts | 148° |
| 2026-04-30 19:22 | 54.54343 | 46.45547 | 28306 ft | 285 kts | 149° |
| 2026-04-30 19:22 | 54.49711 | 46.51868 | 27017 ft | 286 kts | 148° |
| 2026-04-30 19:23 | 54.44857 | 46.58498 | 25066 ft | 307 kts | 150° |
| 2026-04-30 19:24 | 54.41447 | 46.63117 | 23815 ft | 318 kts | 150° |
| 2026-04-30 19:24 | 54.39686 | 46.65496 | 23107 ft | 323 kts | 150° |
| 2026-04-30 19:24 | 54.36117 | 46.70309 | 21648 ft | 329 kts | 149° |
| 2026-04-30 19:25 | 54.30606 | 46.77714 | 19279 ft | 341 kts | 148° |
| 2026-04-30 19:26 | 54.26867 | 46.82734 | 17898 ft | 340 kts | 148° |
| 2026-04-30 19:26 | 54.23425 | 46.88208 | 16497 ft | 348 kts | 126° |
| 2026-04-30 19:26 | 54.22649 | 46.92187 | 15738 ft | 361 kts | 104° |
| 2026-04-30 19:27 | 54.22195 | 47.00729 | 14274 ft | 363 kts | 102° |
| 2026-04-30 19:27 | 54.21409 | 47.09217 | 12710 ft | 359 kts | 105° |
| 2026-04-30 19:28 | 54.20925 | 47.13399 | 11931 ft | 357 kts | 105° |
| 2026-04-30 19:28 | 54.19894 | 47.21626 | 10524 ft | 349 kts | 106° |
| 2026-04-30 19:29 | 54.18878 | 47.29585 | 9245 ft | 336 kts | 104° |
| 2026-04-30 19:29 | 54.18380 | 47.33443 | 8659 ft | 328 kts | 104° |
| 2026-04-30 19:30 | 54.16293 | 47.43453 | 7969 ft | 278 kts | 138° |
| 2026-04-30 19:30 | 54.12911 | 47.45104 | 7554 ft | 253 kts | 193° |
| 2026-04-30 19:31 | 54.10444 | 47.41243 | 6872 ft | 253 kts | 252° |
| 2026-04-30 19:31 | 54.10409 | 47.38216 | 6953 ft | 266 kts | 283° |
| 2026-04-30 19:31 | 54.12737 | 47.33727 | 7094 ft | 260 kts | 341° |
| 2026-04-30 19:32 | 54.14520 | 47.33434 | 7081 ft | 260 kts | 9° |
| 2026-04-30 19:32 | 54.16250 | 47.34278 | 6950 ft | 259 kts | 21° |
| 2026-04-30 19:32 | 54.17932 | 47.35410 | 6929 ft | 260 kts | 24° |
| 2026-04-30 19:32 | 54.19401 | 47.37135 | 6928 ft | 257 kts | 51° |
| 2026-04-30 19:33 | 54.20185 | 47.39822 | 6973 ft | 254 kts | 80° |
| 2026-04-30 19:33 | 54.20105 | 47.42747 | 6984 ft | 251 kts | 109° |
| 2026-04-30 19:33 | 54.19356 | 47.45434 | 6982 ft | 251 kts | 121° |
| 2026-04-30 19:33 | 54.18443 | 47.47999 | 6983 ft | 252 kts | 122° |
| 2026-04-30 19:34 | 54.17515 | 47.50535 | 6986 ft | 252 kts | 123° |
| 2026-04-30 19:34 | 54.16586 | 47.53070 | 6987 ft | 252 kts | 123° |
| 2026-04-30 19:34 | 54.14730 | 47.58120 | 6684 ft | 247 kts | 122° |
| 2026-04-30 19:35 | 54.13818 | 47.60552 | 6393 ft | 242 kts | 122° |
| 2026-04-30 19:35 | 54.12904 | 47.62956 | 5999 ft | 241 kts | 123° |
| 2026-04-30 19:35 | 54.12300 | 47.64532 | 5742 ft | 240 kts | 123° |
| 2026-04-30 19:35 | 54.11081 | 47.67682 | 5232 ft | 239 kts | 123° |
| 2026-04-30 19:36 | 54.10161 | 47.70040 | 4851 ft | 238 kts | 122° |
| 2026-04-30 19:36 | 54.09239 | 47.72381 | 4463 ft | 238 kts | 123° |
| 2026-04-30 19:36 | 54.07395 | 47.77017 | 3860 ft | 235 kts | 122° |
| 2026-04-30 19:37 | 54.06772 | 47.78568 | 3606 ft | 235 kts | 122° |
| 2026-04-30 19:37 | 54.05851 | 47.80837 | 3224 ft | 235 kts | 121° |
| 2026-04-30 19:37 | 54.04903 | 47.83092 | 3021 ft | 233 kts | 122° |
| 2026-04-30 19:37 | 54.04032 | 47.85406 | 3008 ft | 231 kts | 108° |
| 2026-04-30 19:38 | 54.03876 | 47.88047 | 3003 ft | 224 kts | 74° |
| 2026-04-30 19:38 | 54.04533 | 47.90418 | 3002 ft | 224 kts | 55° |
| 2026-04-30 19:38 | 54.05438 | 47.92602 | 3003 ft | 227 kts | 52° |
| 2026-04-30 19:38 | 54.06376 | 47.94775 | 3002 ft | 228 kts | 52° |
| 2026-04-30 19:39 | 54.07316 | 47.96938 | 3003 ft | 223 kts | 52° |
| 2026-04-30 19:39 | 54.08190 | 47.98946 | 3007 ft | 206 kts | 52° |
| 2026-04-30 19:39 | 54.09017 | 48.00826 | 3001 ft | 190 kts | 52° |
| 2026-04-30 19:39 | 54.09782 | 48.02571 | 3004 ft | 178 kts | 52° |
| 2026-04-30 19:40 | 54.10516 | 48.04247 | 3009 ft | 176 kts | 50° |
| 2026-04-30 19:40 | 54.11240 | 48.05938 | 3009 ft | 177 kts | 51° |
| 2026-04-30 19:40 | 54.11959 | 48.07641 | 3008 ft | 177 kts | 51° |
| 2026-04-30 19:40 | 54.12770 | 48.09186 | 3008 ft | 175 kts | 32° |
| 2026-04-30 19:41 | 54.13830 | 48.10158 | 3006 ft | 176 kts | 23° |
| 2026-04-30 19:41 | 54.14962 | 48.10991 | 2863 ft | 179 kts | 21° |
| 2026-04-30 19:41 | 54.16107 | 48.11809 | 2622 ft | 177 kts | 21° |
| 2026-04-30 19:41 | 54.17234 | 48.12610 | 2384 ft | 175 kts | 20° |
| 2026-04-30 19:42 | 54.18351 | 48.13416 | 2162 ft | 173 kts | 20° |
| 2026-04-30 19:42 | 54.19458 | 48.14224 | 2097 ft | 175 kts | 22° |
| 2026-04-30 19:42 | 54.20537 | 48.15243 | 1974 ft | 176 kts | 32° |
| 2026-04-30 19:42 | 54.21478 | 48.16549 | 1796 ft | 172 kts | 37° |
| 2026-04-30 19:43 | 54.22402 | 48.17750 | 1567 ft | 161 kts | 27° |
| 2026-04-30 19:43 | 54.23352 | 48.18644 | 1245 ft | 153 kts | 30° |
| 2026-04-30 19:43 | 54.24240 | 48.19631 | 870 ft | 152 kts | 32° |
| 2026-04-30 19:44 | 54.25941 | 48.21419 | 581 ft | 156 kts | 33° |
| 2026-04-30 19:44 | 54.26965 | 48.22607 | 1132 ft | 200 kts | 33° |
| 2026-04-30 19:44 | 54.28255 | 48.23968 | 1972 ft | 234 kts | 31° |
| 2026-04-30 19:44 | 54.29743 | 48.25366 | 2894 ft | 240 kts | 30° |
| 2026-04-30 19:45 | 54.31112 | 48.26588 | 3653 ft | 219 kts | 29° |
| 2026-04-30 19:45 | 54.32521 | 48.27959 | 4183 ft | 253 kts | 32° |
| 2026-04-30 19:45 | 54.34136 | 48.29627 | 4634 ft | 288 kts | 33° |
| 2026-04-30 19:45 | 54.35819 | 48.31801 | 5114 ft | 320 kts | 36° |
| 2026-04-30 19:46 | 54.37930 | 48.33487 | 5560 ft | 351 kts | 14° |
| 2026-04-30 19:46 | 54.40402 | 48.33708 | 6322 ft | 349 kts | 352° |
| 2026-04-30 19:46 | 54.42667 | 48.32525 | 6683 ft | 351 kts | 332° |
| 2026-04-30 19:46 | 54.44531 | 48.30099 | 6678 ft | 325 kts | 311° |
| 2026-04-30 19:47 | 54.45640 | 48.26880 | 6421 ft | 306 kts | 287° |
| 2026-04-30 19:47 | 54.45887 | 48.24545 | 6239 ft | 294 kts | 271° |
| 2026-04-30 19:47 | 54.45213 | 48.20225 | 5917 ft | 274 kts | 239° |
| 2026-04-30 19:47 | 54.44173 | 48.17574 | 5733 ft | 261 kts | 233° |
| 2026-04-30 19:48 | 54.43125 | 48.15113 | 5581 ft | 248 kts | 233° |
| 2026-04-30 19:48 | 54.42123 | 48.12773 | 5391 ft | 239 kts | 233° |
| 2026-04-30 19:48 | 54.41146 | 48.10495 | 5096 ft | 235 kts | 233° |
| 2026-04-30 19:48 | 54.40207 | 48.08309 | 5021 ft | 223 kts | 233° |
| 2026-04-30 19:49 | 54.39320 | 48.06232 | 5017 ft | 208 kts | 233° |
| 2026-04-30 19:49 | 54.37617 | 48.02256 | 5037 ft | 222 kts | 233° |
| 2026-04-30 19:49 | 54.36676 | 48.00073 | 5024 ft | 231 kts | 232° |
| 2026-04-30 19:50 | 54.35515 | 47.98194 | 5020 ft | 231 kts | 207° |
| 2026-04-30 19:50 | 54.33995 | 47.97465 | 5023 ft | 230 kts | 186° |
| 2026-04-30 19:50 | 54.32392 | 47.97215 | 5026 ft | 231 kts | 183° |
| 2026-04-30 19:50 | 54.30799 | 47.97014 | 5018 ft | 233 kts | 183° |
| 2026-04-30 19:51 | 54.29175 | 47.96801 | 5025 ft | 234 kts | 183° |
| 2026-04-30 19:51 | 54.27551 | 47.96579 | 4955 ft | 234 kts | 183° |
| 2026-04-30 19:51 | 54.25932 | 47.96356 | 4612 ft | 233 kts | 183° |
| 2026-04-30 19:51 | 54.24308 | 47.96138 | 4248 ft | 234 kts | 183° |
| 2026-04-30 19:52 | 54.22688 | 47.95921 | 3897 ft | 234 kts | 183° |
| 2026-04-30 19:52 | 54.21062 | 47.95697 | 3548 ft | 234 kts | 183° |
| 2026-04-30 19:52 | 54.19444 | 47.95467 | 3214 ft | 233 kts | 182° |
| 2026-04-30 19:52 | 54.17854 | 47.95720 | 2835 ft | 229 kts | 156° |
| 2026-04-30 19:53 | 54.16586 | 47.97265 | 2479 ft | 224 kts | 129° |
| 2026-04-30 19:53 | 54.15619 | 47.99320 | 2185 ft | 221 kts | 123° |
| 2026-04-30 19:53 | 54.14711 | 48.01427 | 2115 ft | 220 kts | 123° |
| 2026-04-30 19:53 | 54.13855 | 48.03592 | 2098 ft | 219 kts | 111° |
| 2026-04-30 19:54 | 54.13643 | 48.06076 | 2106 ft | 212 kts | 78° |
| 2026-04-30 19:54 | 54.14109 | 48.08444 | 2120 ft | 211 kts | 65° |
| 2026-04-30 19:54 | 54.14736 | 48.10689 | 2114 ft | 205 kts | 63° |
| 2026-04-30 19:54 | 54.15344 | 48.12802 | 2111 ft | 193 kts | 62° |
| 2026-04-30 19:55 | 54.16171 | 48.14499 | 2109 ft | 190 kts | 32° |
| 2026-04-30 19:55 | 54.17407 | 48.15288 | 2062 ft | 192 kts | 15° |
| 2026-04-30 19:55 | 54.18717 | 48.15761 | 2018 ft | 192 kts | 13° |
| 2026-04-30 19:55 | 54.20032 | 48.16190 | 2019 ft | 192 kts | 13° |
| 2026-04-30 19:56 | 54.21344 | 48.16620 | 2017 ft | 191 kts | 17° |
| 2026-04-30 19:56 | 54.22558 | 48.17551 | 1823 ft | 192 kts | 32° |
| 2026-04-30 19:56 | 54.23614 | 48.18891 | 1465 ft | 185 kts | 38° |
| 2026-04-30 19:56 | 54.24656 | 48.20038 | 902 ft | 172 kts | 31° |
| 2026-04-30 19:57 | 54.25648 | 48.21102 | 503 ft | 165 kts | 32° |
| 2026-04-30 19:57 | 54.26498 | 48.22000 | 434 ft | 102 kts | 32° |
| 2026-04-30 19:57 | 54.26852 | 48.22379 | 428 ft | 23 kts | 32° |
| 2026-04-30 19:57 | 54.26992 | 48.22534 | 421 ft | 25 kts | 33° |
| 2026-04-30 19:58 | 54.27151 | 48.22701 | 417 ft | 28 kts | 32° |
| 2026-04-30 19:58 | 54.27325 | 48.22888 | 412 ft | 31 kts | 32° |
| 2026-04-30 19:58 | 54.27515 | 48.23087 | 410 ft | 33 kts | 25° |
| 2026-04-30 19:58 | 54.27697 | 48.23261 | 404 ft | 29 kts | 41° |
| 2026-04-30 19:59 | 54.27863 | 48.23465 | 397 ft | 31 kts | 31° |
| 2026-04-30 19:59 | 54.28054 | 48.23667 | 393 ft | 33 kts | 32° |
| 2026-04-30 19:59 | 54.28321 | 48.23821 | 388 ft | 13 kts | 307° |
| 2026-04-30 20:00 | 54.28331 | 48.23793 | 387 ft | 2 kts | 301° |
| 2026-04-30 20:00 | 54.28345 | 48.23753 | 386 ft | 6 kts | 301° |
| 2026-04-30 20:00 | 54.28367 | 48.23689 | 386 ft | 0 kts | 301° |
| 2026-04-30 20:00 | 54.28369 | 48.23683 | 386 ft | 1 kts | 301° |
| 2026-04-30 20:01 | 54.28395 | 48.23621 | 386 ft | 8 kts | 306° |
| 2026-04-30 20:01 | 54.28438 | 48.23522 | 386 ft | 12 kts | 303° |
| 2026-04-30 20:01 | 54.28483 | 48.23398 | 386 ft | 13 kts | 302° |
| 2026-04-30 20:02 | 54.28542 | 48.23145 | 386 ft | 7 kts | 302° |
| 2026-04-30 20:02 | 54.28571 | 48.23071 | 386 ft | 8 kts | 310° |
| 2026-04-30 20:03 | 54.28623 | 48.22964 | 386 ft | 2 kts | 320° |
| 2026-04-30 20:03 | 54.28636 | 48.22961 | 386 ft | 2 kts | 2° |
| 2026-04-30 20:03 | 54.28658 | 48.22971 | 386 ft | 3 kts | 27° |
| 2026-04-30 20:03 | 54.28677 | 48.22988 | 386 ft | 0 kts | 28° |